Pagrindinis puslapis
METAR-TAF:

METAR-TAF

Oro uostai :

Sučava, Rumunija

platuma: 47-39N, ilguma: 026-15E, Aukštis: 351 m

Dabartinis oras

Ataskaita buvo paskelbta 19 minutes, ne 13:30 UTC
Vėjas 3 kt nuo kintamojo kryptimis
Temperatūra 13°C
Drėgmė 54%
Slėgis 1020 hPa
Matomumas 10 km arba daugiau
nėra debesų žemiau 1500 m ir nėra kamuolinių lietaus debesų

METAR: LRSV 171330Z VRB03KT CAVOK 13/04 Q1020

Laikas: 16:49 (13:49 UTC)

Prognozė

Ataskaita buvo paskelbta 2 valandos ir 49 minutes, ne 11:00 UTC
Prognozė galioja nuo 17 metu 12 UTC su 17 metu 21 UTC
Vėjas 4 kt nuo kintamojo kryptimis
Matomumas 10 km arba daugiau
Išsisklaidę debesys ne aukštis 4000 ft
Tapsmas
nuo 17 metu 19 UTC su 17 metu 21 UTC
Matomumas: 5000 m
rūkana

TAF: LRSV 171100Z 1712/1721 VRB04KT 9999 SCT040 BECMG 1719/1721 5000 BR

Orai ataskaitas ir orų prognozės (METAR, TAF).

turimą stotys yra geltonos ir raudonos taškus žemėlapyje.

Perkelti pele per norėdami pamatyti stoties vardą.

Tada spustelėkite, norėdami matyti oro stebėjimo ir prognozės.

Norėdami pakeisti žemėlapį: spustelėkite ant žalios mygtukų su juodo kryžiaus žemyn,; žalią mygtuką su brūkšneliu, jei norite nutolinti; arba žalių rodyklių gretimoms žemėlapius.


METAR-TAF: